Time;durP1;ratioP1;P1;durP2;ratioP2;P2;SDS_P1;SDS_P2;PMS_P1;PMS_P2;Temp;Humidity;BMP_temperature;BMP_pressure;BME280_temperature;BME280_humidity;BME280_pressure;Samples;Min_cycle;Max_cycle;Signal;HPM_P1;HPM_P2
2022/05/06 00:02:07;;;;;;;5.30;3.53;;;10.10;99.90;;;10.07;65.71;101837.09;4937602;29;20248;-74
2022/05/06 00:04:36;;;;;;;4.13;3.78;;;10.10;99.90;;;10.16;65.72;101829.84;4936662;29;20975;-72
2022/05/06 00:07:05;;;;;;;4.35;3.70;;;10.10;99.90;;;10.08;65.77;101830.69;4942580;29;20181;-73
2022/05/06 00:09:34;;;;;;;4.20;3.85;;;10.10;99.90;;;9.87;66.42;101820.50;4937352;29;20185;-72
2022/05/06 00:12:03;;;;;;;4.65;4.00;;;10.00;99.90;;;9.80;67.02;101832.16;4937504;29;20177;-72
2022/05/06 00:14:34;;;;;;;3.78;3.38;;;10.00;99.90;;;9.80;67.08;101827.59;4940120;29;20212;-72
2022/05/06 00:17:04;;;;;;;6.55;4.30;;;9.90;99.90;;;9.83;67.05;101829.09;4936579;29;20276;-72
2022/05/06 00:19:32;;;;;;;5.22;4.60;;;9.90;99.90;;;9.73;67.47;101832.00;4941591;29;20221;-72
2022/05/06 00:22:01;;;;;;;5.63;4.60;;;9.90;99.90;;;9.79;67.28;101834.03;4941360;29;20193;-72
2022/05/06 00:24:30;;;;;;;5.60;4.45;;;9.90;99.90;;;9.69;67.47;101836.06;4941694;29;20216;-72
2022/05/06 00:26:59;;;;;;;4.30;3.90;;;9.80;99.90;;;9.78;67.39;101831.50;4943594;29;20199;-73
2022/05/06 00:29:28;;;;;;;9.57;4.22;;;9.80;99.90;;;9.88;67.20;101832.97;4937542;29;20759;-71
2022/05/06 00:31:58;;;;;;;7.10;4.40;;;9.90;99.90;;;9.65;67.83;101832.03;4941817;29;20193;-71
2022/05/06 00:34:27;;;;;;;5.40;4.00;;;9.80;99.90;;;9.61;67.87;101830.72;4939124;29;20212;-70
2022/05/06 00:36:56;;;;;;;4.72;4.32;;;9.80;99.90;;;9.56;68.14;101833.09;4957552;28;20237;-72
2022/05/06 00:39:24;;;;;;;4.03;3.72;;;9.70;99.90;;;9.44;68.58;101839.88;4941569;29;20236;-71
2022/05/06 00:41:55;;;;;;;6.45;4.53;;;9.60;99.90;;;9.45;68.39;101838.84;4947872;29;20184;-72
2022/05/06 00:44:25;;;;;;;4.88;3.70;;;9.60;99.90;;;9.43;68.39;101835.50;4942258;29;20244;-73
2022/05/06 00:46:59;;;;;;;4.93;3.63;;;9.60;99.90;;;9.50;68.30;101839.16;4944366;29;20188;-72
2022/05/06 00:49:28;;;;;;;4.85;4.45;;;9.60;99.90;;;9.39;68.55;101831.44;4942652;29;20256;-72
2022/05/06 00:51:57;;;;;;;5.50;5.03;;;9.60;99.90;;;9.32;69.34;101830.44;4951207;28;20235;-72
2022/05/06 00:54:26;;;;;;;7.88;4.32;;;9.50;99.90;;;9.14;69.51;101827.94;4946109;28;20231;-72
2022/05/06 00:56:55;;;;;;;5.80;4.57;;;9.40;99.90;;;9.10;69.91;101832.00;4947674;29;20204;-72
2022/05/06 00:59:24;;;;;;;6.32;4.20;;;9.30;99.90;;;8.96;70.13;101825.38;4938243;29;20197;-70
2022/05/06 01:01:53;;;;;;;7.93;4.00;;;9.30;99.90;;;8.92;70.50;101834.84;4941173;29;20199;-72
2022/05/06 01:04:24;;;;;;;6.82;5.55;;;9.20;99.90;;;8.90;70.85;101831.50;4938824;28;20214;-72
2022/05/06 01:06:53;;;;;;;6.68;6.07;;;9.10;99.90;;;8.95;70.72;101839.94;4946691;29;20668;-72
2022/05/06 01:09:22;;;;;;;4.38;3.97;;;9.20;99.90;;;8.94;70.68;101835.53;4936976;28;20187;-72
2022/05/06 01:11:54;;;;;;;5.18;4.55;;;9.20;99.90;;;8.86;70.84;101835.50;4942071;29;20564;-72
2022/05/06 01:14:34;;;;;;;11.45;5.63;;;9.20;99.90;;;8.85;71.11;101841.94;4956423;28;20216;-72
2022/05/06 01:17:22;;;;;;;5.72;5.07;;;9.10;99.90;;;8.76;71.29;101844.81;4942460;29;20203;-72
2022/05/06 01:19:52;;;;;;;5.70;5.20;;;9.10;99.90;;;8.73;71.89;101838.72;4940286;29;20212;-72
2022/05/06 01:22:23;;;;;;;6.13;5.57;;;9.00;99.90;;;8.64;72.18;101833.47;4936935;29;20306;-73
2022/05/06 01:24:52;;;;;;;7.40;4.05;;;8.90;99.90;;;8.54;72.55;101830.94;4956387;28;20306;-70
2022/05/06 01:27:29;;;;;;;6.13;5.30;;;8.80;99.90;;;8.50;72.75;101839.53;4941175;28;20200;-72
2022/05/06 01:30:00;;;;;;;5.28;4.38;;;8.80;99.90;;;8.49;73.00;101837.84;4940494;29;20271;-71
2022/05/06 01:32:32;;;;;;;7.97;5.35;;;8.70;99.90;;;8.49;73.36;101851.31;4951240;28;20267;-72
2022/05/06 01:35:04;;;;;;;8.55;6.50;;;8.70;99.90;;;8.48;73.46;101849.63;4936221;29;20204;-71
2022/05/06 01:37:38;;;;;;;9.05;5.32;;;8.70;99.90;;;8.55;73.74;101842.56;4959132;28;20197;-71
2022/05/06 01:40:10;;;;;;;5.80;4.43;;;8.80;99.90;;;8.66;74.01;101847.66;4941470;28;20205;-71
2022/05/06 01:42:41;;;;;;;5.65;4.35;;;8.80;99.90;;;8.83;73.24;101851.19;4959308;28;20195;-73
2022/05/06 01:45:11;;;;;;;7.50;5.68;;;9.00;99.90;;;8.77;73.25;101843.78;4943718;28;20200;-73
2022/05/06 01:47:44;;;;;;;7.47;5.95;;;8.90;99.90;;;8.73;73.58;101848.66;4947502;29;20235;-73
2022/05/06 01:50:22;;;;;;;9.73;5.53;;;8.90;99.90;;;8.77;73.16;101852.72;4964107;28;20571;-73
2022/05/06 01:52:52;;;;;;;8.60;4.80;;;8.90;99.90;;;8.81;72.67;101856.75;4939550;28;20229;-71
2022/05/06 01:55:22;;;;;;;6.15;4.60;;;8.90;99.90;;;8.82;72.66;101853.06;4937535;29;20199;-70
2022/05/06 01:58:17;;;;;;;6.68;6.03;;;8.90;99.90;;;8.83;73.47;101854.75;4942058;29;20224;-71
2022/05/06 02:00:52;;;;;;;6.55;5.25;;;9.00;99.90;;;8.75;73.13;101849.34;4935809;28;20220;-71
2022/05/06 02:06:16;;;;;;;7.10;4.68;;;8.90;99.90;;;8.67;73.61;101852.88;4937134;29;20316;-71
2022/05/06 02:08:50;;;;;;;7.05;5.65;;;8.90;99.90;;;8.59;73.83;101850.16;4956012;28;20211;-71
2022/05/06 02:11:26;;;;;;;6.00;4.63;;;8.80;99.90;;;8.61;73.68;101847.31;4950983;29;20583;-72
2022/05/06 02:13:56;;;;;;;5.82;5.22;;;8.80;99.90;;;8.57;73.94;101851.31;4938241;29;20225;-72
2022/05/06 02:16:38;;;;;;;4.43;3.95;;;8.80;99.90;;;8.53;74.22;101850.81;4941635;28;20196;-73
2022/05/06 02:19:21;;;;;;;5.20;4.75;;;8.80;99.90;;;8.42;74.03;101850.31;4959591;28;20206;-71
2022/05/06 02:22:27;;;;;;;12.27;4.88;;;8.70;99.90;;;8.41;74.28;101845.91;4959098;28;20247;-72
2022/05/06 02:25:20;;;;;;;8.15;5.85;;;8.60;99.90;;;8.52;74.77;101845.63;4949272;29;20224;-72
2022/05/06 02:27:54;;;;;;;5.97;4.63;;;8.70;99.90;;;8.57;73.91;101845.94;4940451;28;20228;-72
2022/05/06 02:33:15;;;;;;;7.10;4.97;;;8.70;99.90;;;8.38;74.71;101851.63;4947308;28;20314;-72
2022/05/06 02:35:54;;;;;;;12.15;5.18;;;8.60;99.90;;;8.37;74.62;101849.97;4953717;28;20203;-71
2022/05/06 02:38:29;;;;;;;4.88;4.13;;;8.60;99.90;;;8.27;74.70;101847.38;4962581;28;20203;-70
2022/05/06 02:41:00;;;;;;;7.47;5.00;;;8.60;99.90;;;8.18;75.37;101841.09;4957970;28;20214;-73
2022/05/06 02:43:37;;;;;;;7.88;5.18;;;8.40;99.90;;;8.29;74.96;101843.53;4943467;28;20223;-72
2022/05/06 02:46:06;;;;;;;6.75;5.80;;;8.50;99.90;;;8.21;75.17;101842.63;4954205;28;20685;-72
2022/05/06 02:48:35;;;;;;;14.00;5.60;;;8.40;99.90;;;8.10;75.59;101845.63;4955219;28;20188;-70
2022/05/06 02:51:05;;;;;;;6.97;4.90;;;8.40;99.90;;;8.15;75.93;101843.28;4942880;28;20240;-72
2022/05/06 02:53:34;;;;;;;9.63;6.93;;;8.30;99.90;;;8.14;76.02;101841.56;4961245;28;20217;-71
2022/05/06 02:56:06;;;;;;;6.88;5.72;;;8.40;99.90;;;8.14;75.87;101846.97;4944864;28;20196;-72
2022/05/06 02:58:45;;;;;;;5.57;5.07;;;8.30;99.90;;;8.10;76.08;101838.38;4934719;29;20284;-71
2022/05/06 03:01:14;;;;;;;8.02;4.93;;;8.30;99.90;;;8.11;75.97;101841.91;4959885;28;20255;-72
2022/05/06 03:03:46;;;;;;;9.38;6.18;;;8.30;99.90;;;8.14;75.97;101842.44;4945221;28;20244;-73
2022/05/06 03:06:20;;;;;;;7.40;5.25;;;8.30;99.90;;;8.30;75.81;101844.38;4943985;29;20211;-72
2022/05/06 03:08:52;;;;;;;7.30;5.05;;;8.40;99.90;;;8.25;75.91;101844.84;4941964;28;20280;-73
2022/05/06 03:11:27;;;;;;;7.10;5.43;;;8.40;99.90;;;8.32;75.88;101844.22;4953238;28;20192;-71
2022/05/06 03:14:02;;;;;;;6.28;5.50;;;8.40;99.90;;;8.32;76.12;101849.59;4955787;28;20220;-73
2022/05/06 03:16:39;;;;;;;11.38;5.57;;;8.50;99.90;;;8.35;75.68;101850.13;4936511;29;20596;-73
2022/05/06 03:19:08;;;;;;;7.50;5.65;;;8.50;99.90;;;8.18;75.85;101851.06;4938363;28;20192;-73
2022/05/06 03:21:36;;;;;;;6.93;5.55;;;8.40;99.90;;;8.13;76.19;101854.22;4952910;28;20248;-72
2022/05/06 03:24:06;;;;;;;11.40;6.38;;;8.40;99.90;;;8.45;74.51;101852.66;4956869;28;20232;-71
2022/05/06 03:26:36;;;;;;;8.23;5.28;;;8.50;99.90;;;8.54;75.20;101851.66;4944139;29;20192;-72
2022/05/06 03:29:06;;;;;;;6.20;5.60;;;8.50;99.90;;;8.51;75.30;101852.00;4946181;29;20634;-71
2022/05/06 03:31:35;;;;;;;10.77;5.80;;;8.50;99.90;;;8.54;75.43;101848.97;4937888;28;20568;-73
2022/05/06 03:34:07;;;;;;;6.60;5.35;;;8.60;99.90;;;8.37;75.37;101849.97;4939323;28;20616;-73
2022/05/06 03:36:41;;;;;;;6.90;6.30;;;8.50;99.90;;;8.48;75.57;101861.25;4938353;29;20184;-75
2022/05/06 03:39:13;;;;;;;12.50;6.57;;;8.50;99.90;;;8.66;74.88;101862.00;4944227;29;20216;-71
2022/05/06 03:42:04;;;;;;;8.48;5.40;;;8.60;99.90;;;8.44;75.16;101856.38;4938378;29;20260;-71
2022/05/06 03:44:34;;;;;;;6.78;6.07;;;8.50;99.90;;;8.39;75.43;101856.03;4948135;28;20271;-72
2022/05/06 03:47:04;;;;;;;8.45;6.97;;;8.50;99.90;;;8.76;73.88;101861.00;4931319;29;20247;-71
2022/05/06 03:49:36;;;;;;;9.73;6.95;;;8.60;99.90;;;9.11;72.31;101856.09;4949704;28;20626;-72
2022/05/06 03:52:05;;;;;;;9.80;7.28;;;8.80;99.90;;;9.32;71.18;101860.16;4936309;29;20188;-70
2022/05/06 03:54:34;;;;;;;11.95;5.97;;;8.90;99.90;;;9.58;70.68;101869.72;4934106;29;20212;-71
2022/05/06 03:57:06;;;;;;;10.20;7.45;;;9.10;99.90;;;10.57;67.23;101865.63;4931643;29;20189;-73
2022/05/06 03:59:34;;;;;;;8.55;5.65;;;9.40;99.90;;;11.48;64.35;101865.56;4937747;29;20204;-71
2022/05/06 04:02:12;;;;;;;10.05;6.85;;;9.90;99.90;;;11.95;62.37;101865.28;4949299;28;20219;-73
2022/05/06 04:04:41;;;;;;;7.88;6.40;;;10.20;99.90;;;12.15;61.99;101874.53;4939150;29;20647;-72
2022/05/06 04:07:14;;;;;;;6.57;5.78;;;10.60;99.90;;;12.79;60.62;101871.94;4941124;29;20189;-74
2022/05/06 04:09:48;;;;;;;8.57;6.57;;;10.90;99.90;;;13.55;58.80;101868.47;4941282;29;20188;-71
2022/05/06 04:12:21;;;;;;;7.67;6.10;;;11.40;98.60;;;14.26;56.34;101874.53;4944943;28;20252;-71
2022/05/06 04:14:55;;;;;;;6.33;5.07;;;11.80;92.80;;;14.53;55.47;101884.53;4930242;29;20976;-72
2022/05/06 04:17:24;;;;;;;8.57;6.60;;;12.10;88.50;;;15.26;53.89;101884.66;4936711;29;20456;-72
2022/05/06 04:25:29;;;;;;;8.40;5.90;;;13.30;51.30;;;16.20;50.70;101890.66;4947902;29;20436;-72
2022/05/06 04:28:00;;;;;;;9.83;5.83;;;13.90;37.00;;;16.50;49.70;101900.00;4947814;28;20968;-72
2022/05/06 04:30:29;;;;;;;6.60;6.00;;;14.20;29.90;;;16.43;49.98;101893.72;4931829;29;20503;-71
2022/05/06 04:33:05;;;;;;;12.23;7.33;;;14.00;27.00;;;16.80;49.03;101894.81;4932109;29;20946;-71
2022/05/06 04:35:35;;;;;;;9.30;6.63;;;14.10;27.80;;;17.10;48.51;101900.53;4947818;28;20444;-71
2022/05/06 04:38:08;;;;;;;7.70;6.90;;;14.10;27.40;;;17.44;47.16;101902.78;4947840;28;20514;-72
2022/05/06 04:40:38;;;;;;;9.73;6.60;;;14.60;23.50;;;17.19;47.59;101904.66;4947586;28;20452;-72
2022/05/06 04:43:09;;;;;;;10.17;7.20;;;14.60;21.20;;;17.73;46.37;101906.78;4932305;29;20488;-70
2022/05/06 04:45:43;;;;;;;10.47;7.17;;;15.20;18.80;;;16.94;48.25;101902.72;4932545;29;20447;-72
2022/05/06 04:48:13;;;;;;;8.93;6.10;;;14.70;18.10;;;17.95;45.90;101920.91;4931999;29;20439;-72
2022/05/06 04:50:46;;;;;;;12.13;6.30;;;15.20;16.40;;;17.31;47.46;101913.84;4948672;28;20449;-71
2022/05/06 04:53:18;;;;;;;10.37;5.90;;;14.70;16.90;;;17.63;46.41;101917.41;4932372;29;20436;-71
2022/05/06 04:55:50;;;;;;;10.33;6.53;;;15.00;16.40;;;18.61;44.37;101915.53;4933903;29;20893;-71
2022/05/06 04:58:29;;;;;;;11.27;7.23;;;15.70;14.80;;;18.16;45.19;101914.97;4932401;29;20466;-71
2022/05/06 05:01:04;;;;;;;10.43;7.00;;;15.40;12.40;;;18.27;45.49;101919.72;4935129;29;20833;-72
2022/05/06 05:03:33;;;;;;;8.47;7.17;;;15.40;13.70;;;17.83;45.74;101926.28;4936187;29;21032;-71
2022/05/06 05:06:04;;;;;;;9.07;6.50;;;14.90;13.60;;;18.11;45.36;101926.63;4936514;29;20422;-72
2022/05/06 05:08:33;;;;;;;8.40;6.77;;;14.70;14.70;;;18.25;45.56;101924.56;4935514;29;20480;-72
2022/05/06 05:11:03;;;;;;;11.90;6.53;;;14.70;15.70;;;17.87;45.70;101926.66;4935479;29;20452;-71
2022/05/06 05:13:43;;;;;;;8.03;6.13;;;15.30;14.20;;;18.40;44.98;101927.75;4935625;29;20441;-71
2022/05/06 05:16:20;;;;;;;9.57;7.30;;;15.70;12.30;;;19.01;43.39;101926.81;4935508;29;20455;-72
2022/05/06 05:18:49;;;;;;;10.30;7.27;;;16.10;10.10;;;18.79;43.79;101934.69;4937641;29;20425;-71
2022/05/06 05:21:18;;;;;;;8.47;7.60;;;15.90;9.80;;;17.05;47.18;101930.44;4936718;29;20496;-72
2022/05/06 05:23:49;;;;;;;11.13;7.00;;;15.40;11.60;;;15.72;49.73;101934.66;4952808;28;20522;-72
2022/05/06 05:26:18;;;;;;;6.97;5.60;;;15.20;12.00;;;14.46;53.55;101940.03;4938219;29;20904;-72
2022/05/06 05:28:50;;;;;;;9.73;6.27;;;14.40;15.00;;;13.72;56.18;101934.28;4939301;29;20444;-72
2022/05/06 05:31:18;;;;;;;13.67;7.13;;;13.70;19.80;;;13.38;56.50;101937.78;4938147;29;20440;-72
2022/05/06 05:33:48;;;;;;;10.53;7.80;;;13.40;23.70;;;13.19;57.80;101944.69;4937977;29;20464;-72
2022/05/06 05:36:17;;;;;;;9.73;7.13;;;13.20;26.70;;;13.22;57.03;101947.03;4937392;29;20451;-72
2022/05/06 05:38:46;;;;;;;9.80;6.07;;;13.00;28.00;;;13.19;57.23;101946.56;4951154;28;21007;-72
2022/05/06 05:41:15;;;;;;;10.00;5.67;;;13.00;29.60;;;12.99;58.20;101943.63;4934803;29;20429;-71
2022/05/06 05:49:19;;;;;;;11.80;6.43;;;12.90;38.90;;;13.21;57.97;101950.81;4977941;28;20943;-71
2022/05/06 05:51:48;;;;;;;10.53;6.30;;;12.90;41.00;;;13.24;57.66;101942.25;5000476;28;20431;-71
2022/05/06 05:54:17;;;;;;;10.30;7.00;;;13.00;37.00;;;13.30;57.02;101948.78;4977295;28;20824;-70
2022/05/06 05:56:50;;;;;;;12.03;7.10;;;13.10;34.50;;;13.38;56.83;101949.50;4962016;28;20509;-71
2022/05/06 05:59:19;;;;;;;9.03;5.37;;;13.10;34.50;;;13.44;56.86;101942.44;4961321;28;20443;-69
2022/05/06 06:01:50;;;;;;;7.90;5.30;;;13.20;34.30;;;13.62;56.19;101947.38;4957641;29;20876;-71
2022/05/06 06:04:19;;;;;;;10.43;6.80;;;13.40;31.10;;;13.65;55.82;101942.38;4973384;28;20844;-71
2022/05/06 06:06:49;;;;;;;8.23;4.93;;;13.40;30.30;;;13.59;56.37;101950.50;4959072;28;20834;-70
2022/05/06 06:09:22;;;;;;;10.07;8.30;;;13.40;29.80;;;13.56;55.55;101948.16;4959000;28;20451;-70
2022/05/06 06:11:54;;;;;;;8.43;5.40;;;13.50;27.40;;;13.41;55.50;101949.09;4957809;28;20538;-70
2022/05/06 06:14:24;;;;;;;8.87;5.70;;;13.40;25.40;;;13.43;55.31;101946.19;4972410;28;20462;-70
2022/05/06 06:16:54;;;;;;;7.93;5.40;;;13.40;25.00;;;13.80;54.27;101936.84;4956195;28;20467;-72
2022/05/06 06:19:25;;;;;;;7.23;4.60;;;13.50;23.60;;;13.86;53.87;101945.06;4972355;28;20419;-71
2022/05/06 06:21:54;;;;;;;8.03;6.40;;;13.70;22.10;;;14.10;52.99;101948.38;4956397;29;20804;-70
2022/05/06 06:24:30;;;;;;;8.90;5.27;;;13.80;20.50;;;13.91;53.85;101947.19;4956526;28;20486;-71
2022/05/06 06:27:00;;;;;;;34.07;29.40;;;13.80;20.70;;;14.06;53.45;101953.38;4972331;28;20504;-71
2022/05/06 06:29:35;;;;;;;12.57;10.37;;;13.90;20.30;;;14.37;52.99;101954.84;4957479;29;20489;-70
2022/05/06 06:32:07;;;;;;;4.67;4.17;;;14.10;20.30;;;14.62;51.47;101959.56;4955777;28;20778;-71
2022/05/06 06:34:36;;;;;;;5.50;4.10;;;14.30;16.90;;;14.87;50.84;101957.16;4957105;29;20731;-71
2022/05/06 06:37:05;;;;;;;4.90;4.40;;;14.50;16.00;;;14.74;50.49;101954.38;4971202;28;20443;-72
2022/05/06 06:39:37;;;;;;;6.73;5.20;;;14.60;13.90;;;14.87;50.90;101959.88;4954924;28;20452;-71
2022/05/06 06:42:08;;;;;;;6.80;4.70;;;14.60;14.50;;;15.07;50.28;101963.50;4955280;28;20440;-70
2022/05/06 06:44:51;;;;;;;10.50;4.27;;;14.80;14.00;;;14.98;50.84;101958.44;4955063;29;20468;-70
2022/05/06 06:47:41;;;;;;;7.60;4.17;;;14.90;13.50;;;15.10;50.63;101962.28;4956356;29;20426;-70
2022/05/06 06:50:17;;;;;;;5.83;3.83;;;14.90;13.20;;;15.26;50.42;101963.75;4954853;28;20519;-70
2022/05/06 06:53:06;;;;;;;4.90;3.93;;;15.00;13.50;;;15.28;50.48;101958.94;4961560;28;20964;-70
2022/05/06 06:55:35;;;;;;;5.80;4.00;;;15.10;12.60;;;15.15;50.41;101960.56;4955931;28;20785;-70
2022/05/06 06:58:04;;;;;;;5.10;3.87;;;15.20;11.90;;;15.02;51.78;101963.28;4955248;28;20432;-72
2022/05/06 07:00:33;;;;;;;7.20;4.90;;;15.10;13.50;;;15.34;51.48;101966.28;4955256;28;20436;-71
2022/05/06 07:03:03;;;;;;;6.43;5.10;;;15.10;14.20;;;15.68;50.45;101963.41;4955052;29;20495;-70
2022/05/06 07:05:32;;;;;;;7.80;3.77;;;15.30;13.50;;;15.81;49.90;101968.88;4955131;28;20467;-70
2022/05/06 07:13:47;;;;;;;6.43;4.87;;;15.90;11.60;;;16.38;49.13;101979.06;4951255;28;20426;-70
2022/05/06 07:16:16;;;;;;;12.00;5.00;;;16.20;11.00;;;16.01;49.96;101966.13;4954286;28;20450;-69
2022/05/06 07:18:46;;;;;;;8.93;7.20;;;16.10;10.80;;;15.90;50.94;101983.13;4954930;28;20463;-70
2022/05/06 07:21:15;;;;;;;9.40;5.90;;;16.00;11.60;;;16.16;50.57;101979.53;4955121;28;20424;-71
2022/05/06 07:23:43;;;;;;;6.57;4.80;;;16.00;12.20;;;16.25;50.16;101972.81;4954207;28;20483;-69
2022/05/06 07:26:13;;;;;;;7.80;5.10;;;16.10;11.90;;;16.27;50.12;101981.59;4954607;28;20445;-71
2022/05/06 07:28:41;;;;;;;13.27;6.20;;;16.10;11.70;;;16.26;50.03;101974.47;4953680;29;20440;-71
2022/05/06 07:31:10;;;;;;;9.60;5.87;;;16.20;11.30;;;16.47;50.45;101988.69;4954843;29;20783;-70
2022/05/06 07:33:39;;;;;;;8.93;5.70;;;16.30;12.00;;;16.68;49.82;101986.78;4954371;29;20498;-70
2022/05/06 07:36:09;;;;;;;8.17;5.97;;;16.50;11.60;;;16.75;49.64;101984.88;4954810;28;20427;-70
2022/05/06 07:38:38;;;;;;;8.00;5.80;;;16.40;11.40;;;16.76;49.06;101981.91;4953683;28;20444;-71
2022/05/06 07:41:06;;;;;;;12.90;6.50;;;16.70;10.40;;;16.61;49.93;101985.94;4954892;28;20527;-71
2022/05/06 07:43:36;;;;;;;7.17;6.13;;;16.50;11.00;;;16.88;49.41;101985.66;4953755;28;21262;-71
2022/05/06 07:46:11;;;;;;;7.83;5.37;;;16.50;11.00;;;16.80;49.65;101976.84;4954001;28;20431;-70
2022/05/06 07:48:40;;;;;;;7.00;5.00;;;16.70;10.50;;;17.17;49.60;101988.88;4954039;28;20417;-70
2022/05/06 07:51:10;;;;;;;8.37;4.80;;;16.90;11.10;;;17.31;49.22;101987.72;4954288;28;21007;-70
2022/05/06 07:53:39;;;;;;;11.00;6.00;;;17.00;10.60;;;17.46;49.08;101992.88;4953695;28;20424;-70
2022/05/06 07:56:08;;;;;;;9.50;6.00;;;17.20;10.20;;;17.07;49.00;101997.53;4953682;28;20846;-70
2022/05/06 07:58:38;;;;;;;7.93;6.30;;;17.10;8.90;;;17.14;49.40;101995.59;4952481;28;20443;-71
2022/05/06 08:01:07;;;;;;;8.80;5.83;;;17.10;9.50;;;17.31;48.80;101994.03;4954681;29;20460;-70
2022/05/06 08:06:23;;;;;;;9.73;5.60;;;17.10;9.10;;;17.66;47.93;101989.00;4952227;28;20422;-71
2022/05/06 08:08:51;;;;;;;7.17;5.63;;;17.20;8.70;;;17.59;48.29;101992.81;4953661;29;20424;-71
2022/05/06 08:11:20;;;;;;;9.63;5.87;;;17.20;8.60;;;17.47;48.41;101989.94;4953728;28;20428;-70
2022/05/06 08:13:49;;;;;;;8.63;5.90;;;17.20;8.60;;;17.60;47.99;101989.88;4953737;28;20788;-70
2022/05/06 08:16:18;;;;;;;9.43;6.33;;;17.30;8.10;;;17.88;47.26;101991.31;4952284;29;20443;-70
2022/05/06 08:18:47;;;;;;;8.37;6.20;;;17.50;7.40;;;17.53;47.72;101989.03;4954063;28;20387;-71
2022/05/06 08:21:17;;;;;;;7.43;5.37;;;17.40;6.90;;;17.44;48.70;101992.25;4953423;28;20402;-70
2022/05/06 08:23:47;;;;;;;7.70;6.47;;;17.30;7.90;;;17.76;47.22;101993.97;4953629;28;20569;-69
2022/05/06 08:26:16;;;;;;;6.80;5.57;;;17.40;7.00;;;18.00;46.86;101995.03;4953425;28;20395;-72
2022/05/06 08:28:45;;;;;;;7.27;5.17;;;17.60;6.50;;;17.81;47.01;101989.47;4953602;28;20971;-71
2022/05/06 08:31:13;;;;;;;7.63;6.23;;;17.60;5.80;;;17.82;47.35;101998.53;4953390;28;20485;-70
2022/05/06 08:33:48;;;;;;;7.50;5.93;;;17.40;6.70;;;18.30;46.71;101992.41;4955745;28;20807;-71
2022/05/06 08:36:17;;;;;;;8.97;5.20;;;17.80;6.70;;;17.99;46.48;101993.34;4956949;28;20431;-70
2022/05/06 08:38:48;;;;;;;7.93;5.53;;;17.90;4.90;;;18.06;46.36;101994.94;4957124;28;20469;-70
2022/05/06 08:41:20;;;;;;;5.70;4.20;;;17.80;4.80;;;18.21;46.26;101980.88;4956877;28;20428;-70
2022/05/06 08:43:49;;;;;;;9.23;5.63;;;17.90;4.90;;;18.48;45.61;101986.94;4971495;28;20450;-70
2022/05/06 08:51:53;;;;;;;8.47;4.87;;;18.10;5.10;;;18.75;46.36;101980.09;4934522;28;20414;-69
2022/05/06 08:54:24;;;;;;;11.40;5.67;;;18.30;5.20;;;18.67;45.76;101981.25;4956805;28;20830;-71
2022/05/06 08:56:55;;;;;;;5.87;4.83;;;18.40;4.20;;;18.00;47.04;101986.81;4956428;28;20518;-70
2022/05/06 08:59:24;;;;;;;6.90;5.70;;;18.00;4.00;;;18.01;47.68;101983.00;4955641;28;20982;-70
2022/05/06 09:01:55;;;;;;;8.90;5.87;;;17.90;5.20;;;17.86;47.62;101990.72;4956602;28;20445;-70
2022/05/06 09:04:24;;;;;;;9.60;5.80;;;17.60;5.30;;;17.86;47.82;101993.47;4956446;28;20477;-71
2022/05/06 09:07:21;;;;;;;8.50;6.23;;;17.50;5.80;;;18.52;45.57;101983.50;4955977;28;20400;-70
2022/05/06 09:10:14;;;;;;;8.03;5.20;;;17.80;4.50;;;19.60;44.83;101975.34;4956010;28;20435;-71
2022/05/06 09:12:45;;;;;;;9.23;5.23;;;18.60;4.60;;;19.55;44.20;101985.34;4971081;28;20889;-70
2022/05/06 09:18:07;;;;;;;5.93;4.83;;;19.00;1.60;;;17.95;46.10;101981.16;4956291;29;20383;-70
2022/05/06 09:20:42;;;;;;;5.90;3.73;;;18.50;1.00;;;17.90;46.83;101978.25;4971949;28;20952;-70
2022/05/06 09:23:24;;;;;;;9.67;4.20;;;18.00;2.50;;;17.86;46.68;101982.50;4956291;28;20486;-70
2022/05/06 09:25:56;;;;;;;5.90;4.93;;;17.90;2.60;;;17.84;46.57;101977.25;4956057;28;20438;-70
2022/05/06 09:28:27;;;;;;;4.80;3.90;;;17.70;2.90;;;18.41;46.58;101978.78;4958717;28;20387;-70
2022/05/06 09:31:06;;;;;;;6.20;5.13;;;17.90;4.30;;;18.70;45.07;101973.63;4960788;28;20391;-70
2022/05/06 09:33:37;;;;;;;6.83;3.83;;;18.20;2.50;;;18.88;44.04;101976.38;4965505;28;20466;-70
2022/05/06 09:36:28;;;;;;;6.63;5.13;;;18.60;1.00;;;19.48;43.65;101967.06;4966066;29;20827;-70
2022/05/06 09:39:04;;;;;;;6.50;5.90;;;18.80;1.00;;;20.02;42.98;101967.00;4969500;29;20412;-69
2022/05/06 09:41:38;;;;;;;5.20;4.47;;;19.20;1.20;;;20.22;42.71;101965.56;4961903;28;20457;-71
2022/05/06 09:44:09;;;;;;;4.93;3.97;;;19.60;1.00;;;20.24;42.06;101955.16;4957234;29;20461;-70
2022/05/06 09:46:38;;;;;;;5.07;4.33;;;19.60;1.00;;;20.34;42.36;101966.41;4956266;28;20434;-70
2022/05/06 09:49:07;;;;;;;3.87;3.40;;;19.70;1.00;;;19.46;42.77;101973.88;4956751;28;20420;-70
2022/05/06 09:51:55;;;;;;;7.83;4.30;;;19.50;1.00;;;19.22;43.51;101972.91;4955957;28;20448;-71
2022/05/06 09:54:33;;;;;;;9.40;5.70;;;19.10;1.00;;;18.87;43.74;101969.19;4955268;28;20445;-70
2022/05/06 09:57:06;;;;;;;17.27;12.63;;;18.80;1.00;;;19.37;43.48;101958.75;4955119;29;20795;-69
2022/05/06 09:59:36;;;;;;;15.53;10.40;;;19.00;1.00;;;19.39;43.30;101960.22;4953927;29;20471;-69
2022/05/06 10:02:07;;;;;;;4.67;4.20;;;19.10;1.00;;;19.31;43.77;101960.56;4954991;28;20797;-70
2022/05/06 10:04:37;;;;;;;5.83;3.80;;;19.10;1.00;;;19.76;43.03;101957.31;4955016;28;20472;-70
2022/05/06 10:07:11;;;;;;;6.70;4.17;;;19.20;1.00;;;20.34;41.23;101960.91;4954803;28;20410;-70
2022/05/06 10:09:50;;;;;;;6.87;4.00;;;19.80;1.00;;;20.45;40.62;101955.63;4953537;29;20442;-69
2022/05/06 10:12:24;;;;;;;4.80;4.13;;;20.00;1.00;;;19.81;40.49;101949.19;4955082;29;20460;-71
2022/05/06 10:14:54;;;;;;;8.30;6.37;;;19.90;1.00;;;19.38;41.85;101950.28;4954530;28;20418;-71
2022/05/06 10:17:50;;;;;;;8.37;3.33;;;19.40;1.00;;;19.90;41.04;101958.75;4954450;28;20403;-69
2022/05/06 10:20:58;;;;;;;3.37;3.07;;;19.40;1.00;;;20.29;40.25;101941.53;4954854;29;20451;-70
2022/05/06 10:23:52;;;;;;;10.03;3.53;;;19.60;1.00;;;20.45;40.45;101941.88;4969610;28;20432;-71
2022/05/06 10:26:46;;;;;;;5.57;4.10;;;20.00;1.00;;;19.95;41.42;101929.47;4955003;29;20482;-70
2022/05/06 10:32:59;;;;;;;9.03;6.90;;;19.60;1.00;;;19.15;43.54;101943.91;4955021;28;20420;-71
2022/05/06 10:35:43;;;;;;;7.57;5.33;;;19.10;1.00;;;18.64;44.10;101935.09;4954928;29;20426;-71
2022/05/06 10:38:21;;;;;;;19.87;10.17;;;18.70;1.00;;;18.93;44.14;101940.81;4954721;28;20474;-70
2022/05/06 10:40:58;;;;;;;32.07;22.07;;;18.70;1.00;;;18.69;44.22;101939.06;4955149;28;20451;-71
2022/05/06 10:43:51;;;;;;;10.60;6.20;;;18.60;1.00;;;18.96;43.98;101943.97;4955059;28;20432;-70
2022/05/06 10:46:41;;;;;;;3.30;3.00;;;18.70;1.00;;;18.87;42.96;101941.78;4952397;29;20475;-71
2022/05/06 10:49:50;;;;;;;4.00;2.57;;;18.70;1.00;;;18.28;44.11;101931.50;4955168;28;20444;-71
2022/05/06 10:52:45;;;;;;;4.50;3.03;;;18.40;1.00;;;18.57;43.49;101919.81;4929064;29;20417;-70
2022/05/06 10:55:17;;;;;;;7.43;4.50;;;18.40;1.00;;;18.81;43.49;101926.22;4954305;28;20480;-70
2022/05/06 10:57:52;;;;;;;5.00;4.10;;;18.50;1.00;;;18.63;43.50;101922.47;4953388;28;20819;-70
2022/05/06 11:00:23;;;;;;;9.73;4.20;;;18.40;1.00;;;18.43;43.92;101919.09;4956604;28;20438;-70
2022/05/06 11:02:53;;;;;;;6.93;4.07;;;18.40;1.00;;;18.74;43.99;101929.06;4954775;28;20431;-70
2022/05/06 11:05:24;;;;;;;4.90;3.70;;;18.40;1.00;;;18.88;43.79;101925.06;4954852;28;20448;-70
2022/05/06 11:07:59;;;;;;;6.37;4.20;;;18.40;1.00;;;19.24;42.98;101917.78;4954434;29;20416;-70
2022/05/06 11:10:33;;;;;;;3.93;3.00;;;18.70;1.00;;;19.46;42.77;101916.22;4954479;28;20481;-71
2022/05/06 11:13:25;;;;;;;5.13;3.53;;;19.00;1.00;;;19.25;42.92;101912.06;4954616;28;20463;-72
2022/05/06 11:15:55;;;;;;;3.07;2.50;;;19.00;1.00;;;19.55;41.75;101905.72;4956030;28;20748;-71
2022/05/06 11:18:26;;;;;;;3.30;2.40;;;19.20;1.00;;;20.28;40.54;101906.06;4955519;28;20439;-71
2022/05/06 11:20:55;;;;;;;4.70;3.10;;;19.60;1.00;;;20.42;40.42;101901.16;4954248;28;20403;-70